createdAt,value
2018-12-27T00:01:32.072Z,8.60
2018-12-27T00:03:58.189Z,8.35
2018-12-27T00:06:24.029Z,8.50
2018-12-27T00:08:53.028Z,8.03
2018-12-27T00:11:19.194Z,10.35
2018-12-27T00:13:48.256Z,7.97
2018-12-27T00:16:14.078Z,7.92
2018-12-27T00:18:40.541Z,8.27
2018-12-27T00:21:06.917Z,7.83
2018-12-27T00:23:35.658Z,7.58
2018-12-27T00:26:01.477Z,6.83
2018-12-27T00:28:30.573Z,7.60
2018-12-27T00:30:56.401Z,7.65
2018-12-27T00:33:25.260Z,7.23
2018-12-27T00:35:51.094Z,8.33
2018-12-27T00:38:17.247Z,6.93
2018-12-27T00:40:43.103Z,8.00
2018-12-27T00:43:09.231Z,8.53
2018-12-27T00:45:38.411Z,7.25
2018-12-27T00:48:04.288Z,7.08
2018-12-27T00:50:31.605Z,7.60
2018-12-27T00:52:57.471Z,8.75
2018-12-27T00:55:28.353Z,7.03
2018-12-27T00:57:54.246Z,8.68
2018-12-27T01:00:23.411Z,7.27
2018-12-27T01:02:50.720Z,8.53
2018-12-27T01:05:16.804Z,7.72
2018-12-27T01:07:42.907Z,8.28
2018-12-27T01:10:11.560Z,7.70
2018-12-27T01:12:37.393Z,8.95
2018-12-27T01:15:03.275Z,8.20
2018-12-27T01:17:29.384Z,8.00
2018-12-27T01:19:55.566Z,8.13
2018-12-27T01:22:24.374Z,7.08
2018-12-27T01:24:50.219Z,7.78
2018-12-27T01:27:18.870Z,8.30
2018-12-27T01:29:44.810Z,7.28
2018-12-27T01:32:13.469Z,8.10
2018-12-27T01:34:39.415Z,7.15
2018-12-27T01:37:06.920Z,7.67
2018-12-27T01:39:32.762Z,7.70
2018-12-27T01:42:01.360Z,8.13
2018-12-27T01:44:27.194Z,8.78
2018-12-27T01:46:57.804Z,7.33
2018-12-27T01:49:23.641Z,8.28
2018-12-27T01:51:49.470Z,6.40
2018-12-27T01:54:15.321Z,7.20
2018-12-27T01:56:41.190Z,7.47
2018-12-27T01:59:09.777Z,6.97
2018-12-27T02:01:35.645Z,7.05
2018-12-27T02:04:04.474Z,6.60
2018-12-27T02:06:30.615Z,6.42
2018-12-27T02:08:59.579Z,5.97
2018-12-27T02:11:25.416Z,7.03
2018-12-27T02:13:54.020Z,6.20
2018-12-27T02:16:20.223Z,6.15
2018-12-27T02:18:46.495Z,5.62
2018-12-27T02:21:12.277Z,6.12
2018-12-27T02:23:43.290Z,6.23
2018-12-27T02:26:09.152Z,6.60
2018-12-27T02:28:35.089Z,6.40
2018-12-27T02:31:00.953Z,6.87
2018-12-27T02:33:35.078Z,7.20
2018-12-27T02:35:54.551Z,7.53
2018-12-27T02:38:20.632Z,7.03
2018-12-27T02:40:47.749Z,7.75
2018-12-27T02:43:13.613Z,7.10
2018-12-27T02:45:44.035Z,7.77
2018-12-27T02:48:10.096Z,8.93
2018-12-27T02:50:38.752Z,7.50
2018-12-27T02:53:04.574Z,8.45
2018-12-27T02:55:31.517Z,7.40
2018-12-27T03:00:27.832Z,7.33
2018-12-27T03:02:53.965Z,6.97
2018-12-27T03:05:19.923Z,6.92
2018-12-27T03:07:45.747Z,6.67
2018-12-27T03:10:11.932Z,4.90
2018-12-27T03:12:40.856Z,6.55
2018-12-27T03:15:06.678Z,7.40
2018-12-27T03:17:35.572Z,6.47
2018-12-27T03:20:01.705Z,6.62
2018-12-27T03:22:27.544Z,6.95
2018-12-27T03:24:54.211Z,6.43
2018-12-27T03:27:22.516Z,6.35
2018-12-27T03:29:48.312Z,6.00
2018-12-27T03:32:18.907Z,7.00
2018-12-27T03:34:44.741Z,6.20
2018-12-27T03:37:13.736Z,5.73
2018-12-27T03:39:39.580Z,5.80
2018-12-27T03:42:05.717Z,6.00
2018-12-27T03:44:31.570Z,6.37
2018-12-27T03:46:57.720Z,7.87
2018-12-27T03:49:23.556Z,7.55
2018-12-27T03:51:49.385Z,7.50
2018-12-27T03:54:17.705Z,7.27
2018-12-27T03:56:43.966Z,7.92
2018-12-27T03:59:12.653Z,6.10
2018-12-27T04:01:38.507Z,6.60
2018-12-27T04:04:07.471Z,7.63
2018-12-27T04:06:33.617Z,6.97
2018-12-27T04:09:04.102Z,7.90
2018-12-27T04:11:29.973Z,8.38
2018-12-27T04:13:57.204Z,7.43
2018-12-27T04:16:23.389Z,6.80
2018-12-27T04:18:49.477Z,6.45
2018-12-27T04:21:15.331Z,7.85
2018-12-27T04:23:41.292Z,6.03
2018-12-27T04:26:10.642Z,7.93
2018-12-27T04:28:36.455Z,7.12
2018-12-27T04:31:03.649Z,7.10
2018-12-27T04:33:33.532Z,7.03
2018-12-27T04:35:59.734Z,7.42
2018-12-27T04:38:25.598Z,6.10
2018-12-27T04:40:54.521Z,7.30
2018-12-27T04:43:20.723Z,7.85
2018-12-27T04:45:49.384Z,7.60
2018-12-27T04:48:15.477Z,5.83
2018-12-27T04:50:44.375Z,6.45
2018-12-27T04:53:10.542Z,9.15
2018-12-27T04:55:36.762Z,6.85
2018-12-27T04:58:02.630Z,7.35
2018-12-27T05:00:28.487Z,7.10
2018-12-27T05:02:54.712Z,6.53
2018-12-27T05:05:20.538Z,7.25
2018-12-27T05:07:49.394Z,5.40
2018-12-27T05:10:15.203Z,6.40
2018-12-27T05:12:43.919Z,4.97
2018-12-27T05:15:09.758Z,6.12
2018-12-27T05:17:40.276Z,5.40
2018-12-27T05:20:06.086Z,4.85
2018-12-27T05:22:35.012Z,5.17
2018-12-27T05:25:00.832Z,5.80
2018-12-27T05:27:29.955Z,5.30
2018-12-27T05:29:55.786Z,5.10
2018-12-27T05:32:21.647Z,5.10
2018-12-27T05:34:47.547Z,8.93
2018-12-27T05:37:13.329Z,8.50
2018-12-27T05:39:42.346Z,9.10
2018-12-27T05:42:08.187Z,6.95
2018-12-27T05:44:34.290Z,7.80
2018-12-27T05:47:00.135Z,6.40
2018-12-27T05:49:29.061Z,7.73
2018-12-27T05:51:54.871Z,6.22
2018-12-27T05:54:23.766Z,6.20
2018-12-27T05:56:49.642Z,6.37
2018-12-27T05:59:17.982Z,5.50
2018-12-27T06:01:44.124Z,6.30
2018-12-27T06:04:15.079Z,5.45
2018-12-27T06:06:40.894Z,6.08
2018-12-27T06:09:06.973Z,5.37
2018-12-27T06:11:32.846Z,6.50
2018-12-27T06:13:58.688Z,8.50
2018-12-27T06:16:24.631Z,7.63
2018-12-27T06:18:50.721Z,8.07
2018-12-27T06:21:20.191Z,8.05
2018-12-27T06:23:46.025Z,9.40
2018-12-27T06:26:14.380Z,9.83
2018-12-27T06:28:40.492Z,8.18
2018-12-27T06:31:09.479Z,7.87
2018-12-27T06:33:36.042Z,7.75
2018-12-27T06:36:04.964Z,8.25
2018-12-27T06:38:30.821Z,6.50
2018-12-27T06:40:59.914Z,7.17
2018-12-27T06:43:25.784Z,7.25
2018-12-27T06:45:51.615Z,6.67
2018-12-27T06:48:17.757Z,7.47
2018-12-27T06:50:43.892Z,7.42
2018-12-27T06:53:12.821Z,6.50
2018-12-27T06:55:38.652Z,6.50
2018-12-27T06:58:04.630Z,6.27
2018-12-27T07:00:30.502Z,5.60
2018-12-27T07:02:59.789Z,6.27
2018-12-27T07:05:26.816Z,5.50
2018-12-27T07:07:56.175Z,8.08
2018-12-27T07:10:22.029Z,5.78
2018-12-27T07:12:50.984Z,8.63
2018-12-27T07:15:16.803Z,8.25
2018-12-27T07:17:45.450Z,8.13
2018-12-27T07:20:11.278Z,7.60
2018-12-27T07:22:37.356Z,8.00
2018-12-27T07:25:03.767Z,8.23
2018-12-27T07:27:29.575Z,8.50
2018-12-27T07:29:55.417Z,9.70
2018-12-27T07:32:21.570Z,8.27
2018-12-27T07:34:56.481Z,10.28
2018-12-27T07:37:20.052Z,11.20
2018-12-27T07:39:46.163Z,10.65
2018-12-27T07:42:12.233Z,13.22
2018-12-27T07:44:41.397Z,14.15
2018-12-27T07:47:07.522Z,11.03
2018-12-27T07:49:36.252Z,9.80
2018-12-27T07:52:02.126Z,8.88
2018-12-27T07:54:31.130Z,6.03
2018-12-27T07:56:57.000Z,7.67
2018-12-27T07:59:23.170Z,9.30
2018-12-27T08:01:49.005Z,11.55
2018-12-27T08:04:14.876Z,10.30
2018-12-27T08:06:41.035Z,9.10
2018-12-27T08:09:07.132Z,8.95
2018-12-27T08:11:36.040Z,11.68
2018-12-27T08:14:01.831Z,12.20
2018-12-27T08:16:30.505Z,14.83
2018-12-27T08:18:56.561Z,30.72
2018-12-27T08:21:25.419Z,37.85
2018-12-27T08:23:51.277Z,31.42
2018-12-27T08:26:19.921Z,29.90
2018-12-27T08:28:46.136Z,24.12
2018-12-27T08:31:17.079Z,32.88
2018-12-27T08:33:43.061Z,27.42
2018-12-27T08:36:09.175Z,81.97
2018-12-27T08:38:35.026Z,60.67
2018-12-27T08:41:01.009Z,38.50
2018-12-27T08:43:26.856Z,23.17
2018-12-27T08:45:52.987Z,16.73
2018-12-27T08:48:21.580Z,16.60
2018-12-27T08:50:48.239Z,14.90
2018-12-27T08:53:15.328Z,15.15
2018-12-27T08:55:41.176Z,15.88
2018-12-27T08:58:10.591Z,16.60
2018-12-27T09:00:37.793Z,14.58
2018-12-27T09:03:05.763Z,14.87
2018-12-27T09:05:31.998Z,13.88
2018-12-27T09:08:00.582Z,10.53
2018-12-27T09:10:26.447Z,10.25
2018-12-27T09:12:52.289Z,11.30
2018-12-27T09:15:18.140Z,13.13
2018-12-27T09:17:43.978Z,11.80
2018-12-27T09:20:12.965Z,10.80
2018-12-27T09:22:38.825Z,10.28
2018-12-27T09:25:07.895Z,20.00
2018-12-27T09:27:33.731Z,15.18
2018-12-27T09:30:01.002Z,12.67
2018-12-27T09:32:27.129Z,13.58
2018-12-27T09:34:55.596Z,13.72
2018-12-27T09:37:21.700Z,16.37
2018-12-27T09:39:52.471Z,13.35
2018-12-27T09:42:27.067Z,13.40
2018-12-27T09:44:53.289Z,13.80
2018-12-27T09:47:19.450Z,13.83
2018-12-27T09:49:45.310Z,16.00
2018-12-27T09:52:11.143Z,12.37
2018-12-27T09:54:37.284Z,11.17
2018-12-27T09:57:03.106Z,10.38
2018-12-27T09:59:28.943Z,13.97
2018-12-27T10:01:54.787Z,12.40
2018-12-27T10:04:27.776Z,11.30
2018-12-27T10:06:54.167Z,11.95
2018-12-27T10:09:19.977Z,9.77
2018-12-27T10:11:45.837Z,11.33
2018-12-27T10:14:11.660Z,9.67
2018-12-27T10:16:38.154Z,11.17
2018-12-27T10:19:03.959Z,10.90
2018-12-27T10:21:32.919Z,9.00
2018-12-27T10:23:58.739Z,11.10
2018-12-27T10:26:24.871Z,10.20
2018-12-27T10:28:50.779Z,9.88
2018-12-27T10:31:16.683Z,10.47
2018-12-27T10:33:42.540Z,10.40
2018-12-27T10:36:08.676Z,12.40
2018-12-27T10:38:37.599Z,10.08
2018-12-27T10:41:03.728Z,11.48
2018-12-27T10:43:32.434Z,10.55
2018-12-27T10:46:01.924Z,9.48
2018-12-27T10:48:28.130Z,9.33
2018-12-27T10:50:53.928Z,9.68
2018-12-27T10:53:21.412Z,7.73
2018-12-27T10:55:47.279Z,10.68
2018-12-27T10:58:15.900Z,11.30
2018-12-27T11:00:41.741Z,13.62
2018-12-27T11:03:07.608Z,12.60
2018-12-27T11:05:33.425Z,11.30
2018-12-27T11:07:59.286Z,12.67
2018-12-27T11:10:28.117Z,12.70
2018-12-27T11:12:53.981Z,13.65
2018-12-27T11:15:22.653Z,12.87
2018-12-27T11:17:48.498Z,12.40
2018-12-27T11:20:17.107Z,12.47
2018-12-27T11:22:42.953Z,11.43
2018-12-27T11:25:12.151Z,12.70
2018-12-27T11:27:38.252Z,11.35
2018-12-27T11:30:07.280Z,10.25
2018-12-27T11:32:33.510Z,10.40
2018-12-27T11:35:02.637Z,10.58
2018-12-27T11:37:28.470Z,10.13
2018-12-27T11:39:54.586Z,9.73
2018-12-27T11:42:20.430Z,9.95
2018-12-27T11:44:46.584Z,10.90
2018-12-27T11:47:13.525Z,9.63
2018-12-27T11:49:39.406Z,9.28
2018-12-27T11:52:08.274Z,10.37
2018-12-27T11:54:34.363Z,12.93
2018-12-27T11:57:03.328Z,11.12
2018-12-27T11:59:29.890Z,12.15
2018-12-27T12:01:57.349Z,10.08
2018-12-27T12:04:23.173Z,8.95
2018-12-27T12:06:51.431Z,7.80
2018-12-27T12:09:17.301Z,7.10
2018-12-27T12:11:45.643Z,7.90
2018-12-27T12:14:11.572Z,7.72
2018-12-27T12:16:37.380Z,8.87
2018-12-27T12:19:03.269Z,7.67
2018-12-27T12:21:29.092Z,6.87
2018-12-27T12:23:58.312Z,7.90
2018-12-27T12:26:24.172Z,8.98
2018-12-27T12:28:53.525Z,8.90
2018-12-27T12:31:19.662Z,9.30
2018-12-27T12:33:48.227Z,7.58
2018-12-27T12:36:14.067Z,6.92
2018-12-27T12:38:42.137Z,7.43
2018-12-27T12:41:08.192Z,7.95
2018-12-27T12:43:38.612Z,7.40
2018-12-27T12:46:04.460Z,8.48
2018-12-27T12:48:31.498Z,8.93
2018-12-27T12:50:57.323Z,9.70
2018-12-27T12:53:23.444Z,8.17
2018-12-27T12:55:49.562Z,8.18
2018-12-27T12:58:16.652Z,8.23
2018-12-27T13:00:44.162Z,8.30
2018-12-27T13:03:10.018Z,7.20
2018-12-27T13:05:38.862Z,8.17
2018-12-27T13:08:04.974Z,7.60
2018-12-27T13:10:33.561Z,7.22
2018-12-27T13:12:59.701Z,6.90
2018-12-27T13:15:28.576Z,8.03
2018-12-27T13:17:54.692Z,6.60
2018-12-27T13:20:23.540Z,6.70
2018-12-27T13:22:49.360Z,7.28
2018-12-27T13:25:17.977Z,7.10
2018-12-27T13:27:44.103Z,8.13
2018-12-27T13:30:10.034Z,9.03
2018-12-27T13:32:36.135Z,8.80
2018-12-27T13:35:02.343Z,10.03
2018-12-27T13:37:31.014Z,11.97
2018-12-27T13:39:57.135Z,11.15
2018-12-27T13:42:26.300Z,12.37
2018-12-27T13:44:52.172Z,13.75
2018-12-27T13:47:18.286Z,11.70
2018-12-27T13:49:44.134Z,13.05
2018-12-27T13:52:12.648Z,11.57
2018-12-27T13:54:38.453Z,12.30
2018-12-27T13:57:09.241Z,12.30
2018-12-27T13:59:35.064Z,13.35
2018-12-27T14:02:03.689Z,13.17
2018-12-27T14:04:29.594Z,13.18
2018-12-27T14:06:55.449Z,13.43
2018-12-27T14:09:21.299Z,13.40
2018-12-27T14:11:50.484Z,13.67
2018-12-27T14:14:16.732Z,13.83
2018-12-27T14:16:42.577Z,14.40
2018-12-27T14:19:08.522Z,13.00
2018-12-27T14:21:35.067Z,12.30
2018-12-27T14:24:03.791Z,12.40
2018-12-27T14:26:29.614Z,14.87
2018-12-27T14:29:00.113Z,14.37
2018-12-27T14:31:25.971Z,15.40
2018-12-27T14:33:54.575Z,15.50
2018-12-27T14:36:20.704Z,16.75
2018-12-27T14:38:49.897Z,16.55
2018-12-27T14:41:15.716Z,17.52
2018-12-27T14:43:41.572Z,16.40
2018-12-27T14:46:07.660Z,15.50
2018-12-27T14:48:33.516Z,14.20
2018-12-27T14:50:59.344Z,15.93
2018-12-27T14:53:25.604Z,16.23
2018-12-27T14:55:54.490Z,17.15
2018-12-27T14:58:20.577Z,14.60
2018-12-27T15:00:48.617Z,15.05
2018-12-27T15:03:14.449Z,15.75
2018-12-27T15:05:43.419Z,15.80
2018-12-27T15:08:09.924Z,15.32
2018-12-27T15:10:37.940Z,16.85
2018-12-27T15:13:03.781Z,14.80
2018-12-27T15:15:35.574Z,17.13
2018-12-27T15:18:01.409Z,16.00
2018-12-27T15:20:27.240Z,14.43
2018-12-27T15:22:53.078Z,15.43
2018-12-27T15:25:18.924Z,17.30
2018-12-27T15:27:44.759Z,17.00
2018-12-27T15:30:30.740Z,19.23
2018-12-27T15:32:56.815Z,17.30
2018-12-27T15:35:22.666Z,17.05
2018-12-27T15:37:48.785Z,18.40
2018-12-27T15:40:14.628Z,16.07
2018-12-27T15:42:40.710Z,17.13
2018-12-27T15:45:06.854Z,17.35
2018-12-27T15:47:32.722Z,17.60
2018-12-27T15:49:58.678Z,16.20
2018-12-27T15:52:26.290Z,17.00
2018-12-27T15:54:52.139Z,17.05
2018-12-27T15:57:17.987Z,16.30
2018-12-27T15:59:44.125Z,16.33
2018-12-27T16:02:10.040Z,16.15
2018-12-27T16:04:35.874Z,15.60
2018-12-27T16:07:02.263Z,17.57
2018-12-27T16:09:28.141Z,16.02
2018-12-27T16:11:55.023Z,18.40
2018-12-27T16:14:20.918Z,16.12
2018-12-27T16:16:46.777Z,17.90
2018-12-27T16:19:13.899Z,16.60
2018-12-27T16:21:40.971Z,16.27
2018-12-27T16:24:10.174Z,18.60
2018-12-27T16:26:36.293Z,17.10
2018-12-27T16:29:03.701Z,15.70
2018-12-27T16:31:29.541Z,17.42
2018-12-27T16:33:55.408Z,16.40
2018-12-27T16:36:21.239Z,17.53
2018-12-27T16:38:47.034Z,16.60
2018-12-27T16:41:15.163Z,16.80
2018-12-27T16:43:41.007Z,18.40
2018-12-27T16:46:09.328Z,16.47
2018-12-27T16:48:35.160Z,17.02
2018-12-27T16:51:01.220Z,17.43
2018-12-27T16:53:27.024Z,16.70
2018-12-27T16:55:52.842Z,16.77
2018-12-27T16:58:23.718Z,17.80
2018-12-27T17:00:49.581Z,15.20
2018-12-27T17:03:18.198Z,17.83
2018-12-27T17:05:44.302Z,15.95
2018-12-27T17:08:13.480Z,16.10
2018-12-27T17:10:39.563Z,15.25
2018-12-27T17:13:08.362Z,15.98
2018-12-27T17:15:34.185Z,15.53
2018-12-27T17:18:03.223Z,18.17
2018-12-27T17:20:29.183Z,17.90
2018-12-27T17:22:55.160Z,16.17
2018-12-27T17:25:21.263Z,17.30
2018-12-27T17:27:50.416Z,16.48
2018-12-27T17:30:16.282Z,16.52
2018-12-27T17:32:44.854Z,15.57
2018-12-27T17:35:10.718Z,17.73
2018-12-27T17:37:40.876Z,17.80
2018-12-27T17:40:06.689Z,20.00
2018-12-27T17:42:35.344Z,18.97
2018-12-27T17:45:01.190Z,20.50
2018-12-27T17:47:27.345Z,19.00
2018-12-27T17:49:53.207Z,19.85
2018-12-27T17:52:19.016Z,18.57
2018-12-27T17:54:47.743Z,19.70
2018-12-27T17:57:13.599Z,19.75
2018-12-27T17:59:40.851Z,18.10
2018-12-27T18:02:06.721Z,16.17
2018-12-27T18:04:35.737Z,18.23
2018-12-27T18:07:01.564Z,18.05
2018-12-27T18:09:30.433Z,17.23
2018-12-27T18:11:56.278Z,16.62
2018-12-27T18:14:25.406Z,17.07
2018-12-27T18:16:51.537Z,17.25
2018-12-27T18:19:20.135Z,17.52
2018-12-27T18:21:45.981Z,15.18
2018-12-27T18:24:12.090Z,15.13
2018-12-27T18:26:37.952Z,11.88
2018-12-27T18:29:03.791Z,12.00
2018-12-27T18:31:32.723Z,12.30
2018-12-27T18:33:58.907Z,11.95
2018-12-27T18:36:25.866Z,12.70
2018-12-27T18:38:52.023Z,12.35
2018-12-27T18:41:22.923Z,10.20
2018-12-27T18:43:48.766Z,11.05
2018-12-27T18:46:17.364Z,10.97
2018-12-27T18:48:43.173Z,12.18
2018-12-27T18:51:11.788Z,12.97
2018-12-27T18:53:37.872Z,12.70
2018-12-27T18:56:06.529Z,13.13
2018-12-27T18:58:32.280Z,14.65
2018-12-27T19:00:58.164Z,15.70
2018-12-27T19:03:24.320Z,16.70
2018-12-27T19:05:50.528Z,18.45
2018-12-27T19:08:16.375Z,17.73
2018-12-27T19:10:42.220Z,17.73
2018-12-27T19:13:12.738Z,16.10
2018-12-27T19:15:45.072Z,18.55
2018-12-27T19:18:23.529Z,16.90
2018-12-27T19:20:51.974Z,14.93
2018-12-27T19:23:17.823Z,14.30
2018-12-27T19:25:43.686Z,15.10
2018-12-27T19:28:09.510Z,14.27
2018-12-27T19:30:35.702Z,13.90
2018-12-27T19:33:01.570Z,12.82
2018-12-27T19:35:27.390Z,12.57
2018-12-27T19:37:53.570Z,12.90
2018-12-27T19:40:19.734Z,13.25
2018-12-27T19:42:45.855Z,13.35
2018-12-27T19:45:12.009Z,12.63
2018-12-27T19:47:38.154Z,12.58
2018-12-27T19:50:04.128Z,11.18
2018-12-27T19:52:29.959Z,14.25
2018-12-27T19:54:56.069Z,13.97
2018-12-27T19:57:22.299Z,13.35
2018-12-27T19:59:52.767Z,12.50
2018-12-27T20:02:18.854Z,15.30
2018-12-27T20:04:44.992Z,15.48
2018-12-27T20:07:10.864Z,17.50
2018-12-27T20:09:36.689Z,17.97
2018-12-27T20:12:02.547Z,16.73
2018-12-27T20:14:28.376Z,17.03
2018-12-27T20:16:54.592Z,17.27
2018-12-27T20:19:20.486Z,14.90
2018-12-27T20:21:49.028Z,18.13
2018-12-27T20:24:15.092Z,19.60
2018-12-27T20:26:43.967Z,17.70
2018-12-27T20:29:09.830Z,19.27
2018-12-27T20:31:38.421Z,16.83
2018-12-27T20:34:07.595Z,14.30
2018-12-27T20:36:33.571Z,12.05
2018-12-27T20:38:59.670Z,14.00
2018-12-27T20:41:28.889Z,13.85
2018-12-27T20:43:55.018Z,13.13
2018-12-27T20:46:20.994Z,15.30
2018-12-27T20:48:47.130Z,16.90
2018-12-27T20:51:12.984Z,22.87
2018-12-27T20:53:38.824Z,23.77
2018-12-27T20:56:04.771Z,25.30
2018-12-27T20:58:33.633Z,24.00
2018-12-27T21:00:59.465Z,26.07
2018-12-27T21:03:27.226Z,31.13
2018-12-27T21:05:53.075Z,28.62
2018-12-27T21:08:21.933Z,24.10
2018-12-27T21:10:47.755Z,29.15
2018-12-27T21:13:16.913Z,29.00
2018-12-27T21:15:42.749Z,28.92
2018-12-27T21:18:13.077Z,26.67
2018-12-27T21:20:38.932Z,29.45
2018-12-27T21:23:07.974Z,32.03
2018-12-27T21:25:33.801Z,28.45
2018-12-27T21:27:59.647Z,29.57
2018-12-27T21:30:25.730Z,27.67
2018-12-27T21:32:51.885Z,28.02
2018-12-27T21:35:17.763Z,27.52
2018-12-27T21:37:43.604Z,30.17
2018-12-27T21:40:14.667Z,28.40
2018-12-27T21:42:40.641Z,29.70
2018-12-27T21:45:09.521Z,30.17
2018-12-27T21:47:35.378Z,29.57
2018-12-27T21:50:04.385Z,38.43
2018-12-27T21:52:30.543Z,27.55
2018-12-27T21:54:56.684Z,29.90
2018-12-27T21:57:22.810Z,29.05
2018-12-27T21:59:51.484Z,28.05
2018-12-27T22:02:17.447Z,28.77
2018-12-27T22:04:43.613Z,28.57
2018-12-27T22:07:09.700Z,25.52
2018-12-27T22:09:35.789Z,24.02
2018-12-27T22:12:04.553Z,24.05
2018-12-27T22:14:30.360Z,21.93
2018-12-27T22:16:59.358Z,23.00
2018-12-27T22:19:25.492Z,23.45
2018-12-27T22:21:54.120Z,22.07
2018-12-27T22:24:19.945Z,21.40
2018-12-27T22:26:47.422Z,20.37
2018-12-27T22:29:13.242Z,21.35
2018-12-27T22:31:41.733Z,23.80
2018-12-27T22:34:07.561Z,24.75
2018-12-27T22:36:38.150Z,21.37
2018-12-27T22:39:06.104Z,19.80
2018-12-27T22:41:31.909Z,17.15
2018-12-27T22:43:57.756Z,16.47
2018-12-27T22:46:23.692Z,15.00
2018-12-27T22:48:49.816Z,16.23
2018-12-27T22:51:16.026Z,15.58
2018-12-27T22:53:45.702Z,17.25
2018-12-27T22:56:11.829Z,15.03
2018-12-27T22:58:38.078Z,16.10
2018-12-27T23:01:04.307Z,15.28
2018-12-27T23:03:33.684Z,16.23
2018-12-27T23:05:59.818Z,16.73
2018-12-27T23:08:28.687Z,17.23
2018-12-27T23:10:54.625Z,17.48
2018-12-27T23:13:21.950Z,16.40
2018-12-27T23:15:47.926Z,17.67
2018-12-27T23:18:13.749Z,16.17
2018-12-27T23:20:39.587Z,17.00
2018-12-27T23:23:11.318Z,16.07
2018-12-27T23:25:36.397Z,14.47
2018-12-27T23:28:02.351Z,17.15
2018-12-27T23:30:28.478Z,16.20
2018-12-27T23:32:57.897Z,16.48
2018-12-27T23:35:24.026Z,18.55
2018-12-27T23:37:49.853Z,19.67
2018-12-27T23:40:18.870Z,18.90
2018-12-27T23:42:44.715Z,17.30
2018-12-27T23:45:13.283Z,17.97
2018-12-27T23:47:39.123Z,17.52
2018-12-27T23:50:08.044Z,18.10
2018-12-27T23:52:34.197Z,19.42
2018-12-27T23:55:00.348Z,19.10
2018-12-27T23:57:26.165Z,19.15
2018-12-27T23:59:52.107Z,18.57
